createdAt,value
2018-12-06T00:01:38.949Z,0.22
2018-12-06T00:04:09.404Z,0.19
2018-12-06T00:06:39.896Z,0.22
2018-12-06T00:09:10.364Z,0.18
2018-12-06T00:11:40.917Z,0.21
2018-12-06T00:14:12.424Z,0.18
2018-12-06T00:16:43.008Z,0.21
2018-12-06T00:19:13.395Z,0.24
2018-12-06T00:21:43.828Z,0.17
2018-12-06T00:24:14.273Z,0.19
2018-12-06T00:26:44.725Z,0.19
2018-12-06T00:29:15.205Z,0.15
2018-12-06T00:31:45.792Z,0.16
2018-12-06T00:34:16.318Z,0.13
2018-12-06T00:36:46.867Z,0.16
2018-12-06T00:39:17.336Z,0.09
2018-12-06T00:41:47.826Z,0.08
2018-12-06T00:44:18.362Z,0.11
2018-12-06T00:46:48.808Z,0.09
2018-12-06T00:49:19.217Z,0.09
2018-12-06T00:51:49.716Z,0.06
2018-12-06T00:54:20.170Z,0.01
2018-12-06T00:56:50.616Z,-0.01
2018-12-06T00:59:21.078Z,0.00
2018-12-06T01:01:53.354Z,-0.03
2018-12-06T01:04:23.903Z,-0.04
2018-12-06T01:06:54.396Z,-0.04
2018-12-06T01:09:25.035Z,-0.05
2018-12-06T01:11:55.765Z,-0.02
2018-12-06T01:14:30.199Z,-0.03
2018-12-06T01:17:00.709Z,-0.01
2018-12-06T01:19:31.189Z,0.02
2018-12-06T01:22:01.689Z,0.03
2018-12-06T01:24:32.226Z,0.05
2018-12-06T01:27:02.655Z,0.07
2018-12-06T01:29:33.165Z,-0.01
2018-12-06T01:32:03.694Z,-0.04
2018-12-06T01:34:34.116Z,-0.06
2018-12-06T01:37:04.605Z,-0.06
2018-12-06T01:39:35.021Z,-0.10
2018-12-06T01:42:05.576Z,-0.09
2018-12-06T01:44:36.040Z,-0.06
2018-12-06T01:47:06.667Z,-0.13
2018-12-06T01:49:37.248Z,-0.12
2018-12-06T01:52:07.834Z,-0.14
2018-12-06T01:54:38.371Z,-0.14
2018-12-06T01:57:08.813Z,-0.15
2018-12-06T01:59:39.270Z,-0.14
2018-12-06T02:02:09.734Z,-0.17
2018-12-06T02:04:41.285Z,-0.19
2018-12-06T02:07:11.783Z,-0.22
2018-12-06T02:09:42.270Z,-0.21
2018-12-06T02:12:13.003Z,-0.25
2018-12-06T02:14:43.495Z,-0.25
2018-12-06T02:17:14.504Z,-0.25
2018-12-06T02:19:44.973Z,-0.23
2018-12-06T02:22:15.430Z,-0.27
2018-12-06T02:24:45.871Z,-0.24
2018-12-06T02:27:16.553Z,-0.26
2018-12-06T02:29:51.872Z,-0.27
2018-12-06T02:32:22.408Z,-0.31
2018-12-06T02:34:52.884Z,-0.30
2018-12-06T02:37:23.542Z,-0.30
2018-12-06T02:39:53.990Z,-0.30
2018-12-06T02:42:24.484Z,-0.35
2018-12-06T02:44:54.904Z,-0.34
2018-12-06T02:47:25.385Z,-0.34
2018-12-06T02:49:55.894Z,-0.35
2018-12-06T02:52:26.623Z,-0.36
2018-12-06T02:54:57.084Z,-0.39
2018-12-06T02:57:27.703Z,-0.40
2018-12-06T02:59:58.200Z,-0.42
2018-12-06T03:02:28.705Z,-0.38
2018-12-06T03:04:59.190Z,-0.44
2018-12-06T03:07:29.649Z,-0.41
2018-12-06T03:10:00.459Z,-0.37
2018-12-06T03:12:31.242Z,-0.41
2018-12-06T03:15:01.696Z,-0.41
2018-12-06T03:17:34.222Z,-0.50
2018-12-06T03:20:05.473Z,-0.55
2018-12-06T03:22:36.256Z,-0.54
2018-12-06T03:25:06.968Z,-0.59
2018-12-06T03:27:37.470Z,-0.57
2018-12-06T03:30:07.980Z,-0.56
2018-12-06T03:32:38.385Z,-0.54
2018-12-06T03:35:08.887Z,-0.60
2018-12-06T03:37:39.372Z,-0.61
2018-12-06T03:40:09.987Z,-0.65
2018-12-06T03:42:40.513Z,-0.66
2018-12-06T03:45:10.964Z,-0.63
2018-12-06T03:47:42.223Z,-0.68
2018-12-06T03:50:12.634Z,-0.64
2018-12-06T03:52:43.181Z,-0.62
2018-12-06T03:55:13.631Z,-0.60
2018-12-06T03:57:44.085Z,-0.63
2018-12-06T04:00:14.562Z,-0.63
2018-12-06T04:02:45.032Z,-0.67
2018-12-06T04:05:15.551Z,-0.65
2018-12-06T04:07:46.096Z,-0.68
2018-12-06T04:10:16.568Z,-0.69
2018-12-06T04:12:47.424Z,-0.68
2018-12-06T04:15:18.964Z,-0.69
2018-12-06T04:17:49.415Z,-0.69
2018-12-06T04:20:19.892Z,-0.77
2018-12-06T04:22:50.376Z,-0.79
2018-12-06T04:25:20.853Z,-0.74
2018-12-06T04:27:51.429Z,-0.73
2018-12-06T04:30:21.856Z,-0.75
2018-12-06T04:32:52.352Z,-0.81
2018-12-06T04:35:22.935Z,-0.81
2018-12-06T04:37:53.417Z,-0.82
2018-12-06T04:40:23.915Z,-0.89
2018-12-06T04:42:54.377Z,-0.91
2018-12-06T04:45:24.884Z,-0.90
2018-12-06T04:47:55.344Z,-0.93
2018-12-06T04:50:25.751Z,-0.96
2018-12-06T04:52:56.237Z,-0.96
2018-12-06T04:55:26.888Z,-0.94
2018-12-06T04:57:57.364Z,-0.92
2018-12-06T05:00:27.910Z,-0.96
2018-12-06T05:02:58.409Z,-1.00
2018-12-06T05:05:28.892Z,-1.05
2018-12-06T05:07:59.391Z,-0.97
2018-12-06T05:10:29.877Z,-1.01
2018-12-06T05:13:00.488Z,-1.06
2018-12-06T05:15:30.901Z,-1.07
2018-12-06T05:18:01.408Z,-1.11
2018-12-06T05:20:31.790Z,-1.12
2018-12-06T05:23:02.167Z,-1.07
2018-12-06T05:25:32.648Z,-1.09
2018-12-06T05:28:03.164Z,-1.15
2018-12-06T05:30:33.690Z,-1.15
2018-12-06T05:33:04.437Z,-1.17
2018-12-06T05:35:34.913Z,-1.18
2018-12-06T05:38:05.527Z,-1.18
2018-12-06T05:40:35.897Z,-1.17
2018-12-06T05:43:06.376Z,-1.21
2018-12-06T05:45:36.851Z,-1.28
2018-12-06T05:48:07.446Z,-1.25
2018-12-06T05:50:37.952Z,-1.26
2018-12-06T05:53:08.711Z,-1.23
2018-12-06T05:55:39.188Z,-1.21
2018-12-06T05:58:11.782Z,-1.18
2018-12-06T06:00:42.398Z,-1.16
2018-12-06T06:03:12.936Z,-1.12
2018-12-06T06:05:43.427Z,-1.12
2018-12-06T06:08:13.956Z,-1.06
2018-12-06T06:10:44.551Z,-0.98
2018-12-06T06:13:15.339Z,-0.92
2018-12-06T06:15:45.884Z,-0.93
2018-12-06T06:18:16.490Z,-0.86
2018-12-06T06:20:47.026Z,-0.86
2018-12-06T06:23:17.481Z,-0.81
2018-12-06T06:25:48.005Z,-0.71
2018-12-06T06:28:18.478Z,-0.61
2018-12-06T06:30:49.011Z,-0.49
2018-12-06T06:33:20.765Z,-0.44
2018-12-06T06:35:51.244Z,-0.34
2018-12-06T06:38:21.794Z,-0.32
2018-12-06T06:40:52.316Z,-0.25
2018-12-06T06:43:22.855Z,-0.21
2018-12-06T06:45:53.360Z,-0.09
2018-12-06T06:48:23.911Z,0.01
2018-12-06T06:50:54.388Z,0.00
2018-12-06T06:53:25.044Z,0.11
2018-12-06T06:55:55.568Z,0.20
2018-12-06T06:58:26.145Z,0.19
2018-12-06T07:00:56.657Z,0.25
2018-12-06T07:03:27.132Z,0.28
2018-12-06T07:05:57.743Z,0.33
2018-12-06T07:08:28.285Z,0.45
2018-12-06T07:10:58.807Z,0.43
2018-12-06T07:13:29.521Z,0.46
2018-12-06T07:15:59.983Z,0.46
2018-12-06T07:22:14.907Z,0.48
2018-12-06T07:24:45.424Z,0.58
2018-12-06T07:27:15.915Z,0.56
2018-12-06T07:29:46.397Z,0.56
2018-12-06T07:32:16.910Z,0.60
2018-12-06T07:34:47.412Z,0.65
2018-12-06T07:37:17.899Z,0.71
2018-12-06T07:39:48.500Z,0.77
2018-12-06T07:42:19.101Z,0.78
2018-12-06T07:47:33.308Z,0.94
2018-12-06T07:50:03.802Z,0.87
2018-12-06T07:52:34.325Z,1.07
2018-12-06T07:55:04.914Z,1.10
2018-12-06T07:57:35.397Z,1.15
2018-12-06T08:00:07.195Z,1.27
2018-12-06T08:02:37.705Z,1.35
2018-12-06T08:07:52.326Z,1.51
2018-12-06T08:10:23.000Z,1.62
2018-12-06T08:12:53.502Z,1.71
2018-12-06T08:15:24.047Z,1.80
2018-12-06T08:17:54.583Z,1.90
2018-12-06T08:20:25.098Z,2.08
2018-12-06T08:22:55.543Z,2.20
2018-12-06T08:25:27.160Z,2.33
2018-12-06T08:30:39.007Z,2.67
2018-12-06T08:33:09.557Z,2.74
2018-12-06T08:35:40.048Z,2.96
2018-12-06T08:40:53.217Z,3.11
2018-12-06T08:43:23.712Z,3.19
2018-12-06T08:45:54.154Z,3.08
2018-12-06T08:48:24.656Z,3.04
2018-12-06T08:50:55.118Z,2.90
2018-12-06T08:53:25.672Z,3.19
2018-12-06T08:55:56.220Z,3.31
2018-12-06T08:58:27.744Z,3.54
2018-12-06T09:00:59.436Z,3.54
2018-12-06T09:03:29.871Z,3.66
2018-12-06T09:06:00.425Z,3.78
2018-12-06T09:08:30.927Z,3.77
2018-12-06T09:11:01.472Z,3.60
2018-12-06T09:13:32.040Z,3.62
2018-12-06T09:16:02.518Z,3.58
2018-12-06T09:18:33.998Z,3.71
2018-12-06T09:21:04.524Z,3.72
2018-12-06T09:23:35.005Z,3.72
2018-12-06T09:26:05.619Z,3.86
2018-12-06T09:28:36.128Z,4.06
2018-12-06T09:31:06.786Z,3.96
2018-12-06T09:33:46.656Z,4.06
2018-12-06T09:36:17.225Z,4.10
2018-12-06T09:38:47.797Z,4.08
2018-12-06T09:41:18.491Z,4.05
2018-12-06T09:43:49.001Z,3.98
2018-12-06T09:46:19.528Z,4.11
2018-12-06T09:48:50.203Z,4.27
2018-12-06T09:51:20.759Z,4.21
2018-12-06T09:53:51.240Z,4.28
2018-12-06T09:56:21.762Z,4.44
2018-12-06T09:58:52.367Z,4.42
2018-12-06T10:01:22.867Z,4.71
2018-12-06T10:03:53.362Z,4.83
2018-12-06T10:06:24.421Z,5.01
2018-12-06T10:08:54.926Z,5.07
2018-12-06T10:11:25.439Z,4.98
2018-12-06T10:13:55.994Z,4.90
2018-12-06T10:16:26.501Z,4.72
2018-12-06T10:18:57.180Z,4.69
2018-12-06T10:21:27.701Z,4.65
2018-12-06T10:23:58.189Z,4.70
2018-12-06T10:26:28.831Z,4.86
2018-12-06T10:28:59.361Z,4.90
2018-12-06T10:31:30.033Z,4.92
2018-12-06T10:34:00.523Z,5.05
2018-12-06T10:36:31.064Z,4.88
2018-12-06T10:39:01.714Z,4.86
2018-12-06T10:41:33.437Z,4.87
2018-12-06T10:44:03.936Z,4.79
2018-12-06T10:46:34.457Z,4.96
2018-12-06T10:49:04.934Z,4.99
2018-12-06T10:51:50.710Z,4.72
2018-12-06T10:54:21.236Z,4.38
2018-12-06T10:56:51.698Z,4.26
2018-12-06T10:59:22.215Z,4.15
2018-12-06T11:01:57.596Z,3.79
2018-12-06T11:04:42.273Z,3.83
2018-12-06T11:07:12.836Z,3.73
2018-12-06T11:09:43.269Z,3.68
2018-12-06T11:12:13.684Z,3.57
2018-12-06T11:14:44.204Z,3.39
2018-12-06T11:17:14.707Z,3.32
2018-12-06T11:19:45.505Z,3.34
2018-12-06T11:22:15.961Z,3.32
2018-12-06T11:24:46.477Z,2.98
2018-12-06T11:27:16.968Z,2.64
2018-12-06T11:29:47.576Z,2.52
2018-12-06T11:32:18.077Z,2.41
2018-12-06T11:34:48.559Z,2.31
2018-12-06T11:37:18.983Z,2.28
2018-12-06T11:39:49.704Z,2.16
2018-12-06T11:42:20.188Z,2.13
2018-12-06T11:44:50.698Z,2.09
2018-12-06T11:47:21.251Z,1.96
2018-12-06T11:49:51.757Z,1.88
2018-12-06T11:52:22.192Z,1.93
2018-12-06T11:54:52.659Z,1.87
2018-12-06T11:57:23.077Z,1.73
2018-12-06T11:59:53.594Z,1.87
2018-12-06T12:02:24.085Z,1.90
2018-12-06T12:04:54.557Z,1.95
2018-12-06T12:07:25.045Z,2.07
2018-12-06T12:09:55.564Z,2.02
2018-12-06T12:12:26.113Z,2.00
2018-12-06T12:14:58.744Z,1.99
2018-12-06T12:17:29.303Z,1.96
2018-12-06T12:19:59.950Z,1.87
2018-12-06T12:22:30.526Z,1.87
2018-12-06T12:25:00.969Z,1.92
2018-12-06T12:27:31.644Z,1.83
2018-12-06T12:30:02.155Z,1.76
2018-12-06T12:32:32.632Z,1.75
2018-12-06T12:35:03.106Z,1.69
2018-12-06T12:37:33.653Z,1.70
2018-12-06T12:40:04.199Z,1.77
2018-12-06T12:42:35.087Z,1.81
2018-12-06T12:45:05.795Z,1.73
2018-12-06T12:47:36.230Z,1.80
2018-12-06T12:50:09.725Z,1.78
2018-12-06T12:52:40.538Z,1.84
2018-12-06T12:55:10.932Z,1.84
2018-12-06T12:57:41.510Z,1.78
2018-12-06T13:00:12.039Z,1.76
2018-12-06T13:02:42.440Z,1.62
2018-12-06T13:05:12.946Z,1.51
2018-12-06T13:07:43.383Z,1.42
2018-12-06T13:10:13.850Z,1.46
2018-12-06T13:12:44.246Z,1.39
2018-12-06T13:15:14.784Z,1.40
2018-12-06T13:17:45.308Z,1.31
2018-12-06T13:20:16.037Z,1.27
2018-12-06T13:22:46.551Z,1.25
2018-12-06T13:25:17.031Z,1.17
2018-12-06T13:27:47.589Z,1.20
2018-12-06T13:30:18.064Z,1.13
2018-12-06T13:32:48.622Z,1.15
2018-12-06T13:35:19.104Z,1.18
2018-12-06T13:37:49.552Z,1.24
2018-12-06T13:40:20.300Z,1.20
2018-12-06T13:42:50.837Z,1.27
2018-12-06T13:45:21.258Z,1.23
2018-12-06T13:47:51.823Z,1.22
2018-12-06T13:50:22.403Z,1.23
2018-12-06T13:52:52.947Z,1.25
2018-12-06T13:55:23.435Z,1.23
2018-12-06T13:57:53.889Z,1.26
2018-12-06T14:00:24.713Z,1.25
2018-12-06T14:02:56.668Z,1.20
2018-12-06T14:05:27.078Z,1.08
2018-12-06T14:07:57.616Z,1.04
2018-12-06T14:10:28.071Z,1.00
2018-12-06T14:12:58.592Z,0.88
2018-12-06T14:15:29.070Z,0.78
2018-12-06T14:17:59.516Z,0.78
2018-12-06T14:20:30.278Z,0.74
2018-12-06T14:23:00.773Z,0.72
2018-12-06T14:25:31.175Z,0.73
2018-12-06T14:28:01.809Z,0.73
2018-12-06T14:30:32.511Z,0.70
2018-12-06T14:33:03.074Z,0.73
2018-12-06T14:35:33.533Z,0.71
2018-12-06T14:38:04.085Z,0.73
2018-12-06T14:40:34.738Z,0.71
2018-12-06T14:43:05.390Z,0.75
2018-12-06T14:45:36.159Z,0.71
2018-12-06T14:48:07.693Z,0.63
2018-12-06T14:50:38.176Z,0.64
2018-12-06T14:53:08.730Z,0.61
2018-12-06T14:55:39.158Z,0.54
2018-12-06T14:58:10.699Z,0.53
2018-12-06T15:00:41.422Z,0.58
2018-12-06T15:03:11.926Z,0.48
2018-12-06T15:05:42.393Z,0.50
2018-12-06T15:08:12.972Z,0.48
2018-12-06T15:10:43.430Z,0.34
2018-12-06T15:13:13.890Z,0.41
2018-12-06T15:15:44.427Z,0.32
2018-12-06T15:18:14.927Z,0.20
2018-12-06T15:20:45.627Z,0.16
2018-12-06T15:23:16.170Z,0.24
2018-12-06T15:25:46.762Z,0.19
2018-12-06T15:28:17.826Z,0.06
2018-12-06T15:30:48.395Z,0.04
2018-12-06T15:33:19.069Z,-0.05
2018-12-06T15:35:49.563Z,-0.15
2018-12-06T15:38:20.107Z,-0.14
2018-12-06T15:40:50.947Z,-0.30
2018-12-06T15:43:21.453Z,-0.23
2018-12-06T15:45:52.057Z,-0.23
2018-12-06T15:48:22.951Z,-0.30
2018-12-06T15:50:53.512Z,-0.39
2018-12-06T15:53:24.076Z,-0.41
2018-12-06T15:55:54.694Z,-0.47
2018-12-06T15:58:25.720Z,-0.45
2018-12-06T16:00:56.684Z,-0.46
2018-12-06T16:03:27.184Z,-0.45
2018-12-06T16:05:57.729Z,-0.42
2018-12-06T16:08:28.410Z,-0.42
2018-12-06T16:10:58.935Z,-0.48
2018-12-06T16:13:29.536Z,-0.55
2018-12-06T16:16:00.177Z,-0.65
2018-12-06T16:18:30.629Z,-0.66
2018-12-06T16:21:01.441Z,-0.55
2018-12-06T16:23:31.999Z,-0.64
2018-12-06T16:26:02.497Z,-0.71
2018-12-06T16:28:33.099Z,-0.75
2018-12-06T16:31:03.589Z,-0.79
2018-12-06T16:33:34.166Z,-0.80
2018-12-06T16:36:04.575Z,-0.86
2018-12-06T16:38:35.156Z,-0.80
2018-12-06T16:41:05.921Z,-0.81
2018-12-06T16:43:36.418Z,-0.92
2018-12-06T16:46:06.921Z,-0.92
2018-12-06T16:48:38.887Z,-0.86
2018-12-06T16:51:09.374Z,-0.99
2018-12-06T16:53:39.933Z,-0.88
2018-12-06T16:56:10.486Z,-0.85
2018-12-06T16:58:40.985Z,-0.83
2018-12-06T17:01:11.653Z,-0.87
2018-12-06T17:03:42.153Z,-0.85
2018-12-06T17:06:12.641Z,-0.89
2018-12-06T17:08:44.022Z,-0.92
2018-12-06T17:11:14.495Z,-0.88
2018-12-06T17:13:45.007Z,-0.91
2018-12-06T17:16:15.432Z,-0.90
2018-12-06T17:18:45.979Z,-0.89
2018-12-06T17:21:16.794Z,-0.98
2018-12-06T17:23:47.294Z,-1.03
2018-12-06T17:26:17.865Z,-1.06
2018-12-06T17:28:48.426Z,-1.06
2018-12-06T17:31:18.981Z,-1.08
2018-12-06T17:33:49.467Z,-1.05
2018-12-06T17:36:20.007Z,-1.15
2018-12-06T17:38:50.534Z,-1.16
2018-12-06T17:41:21.335Z,-1.26
2018-12-06T17:43:51.772Z,-1.21
2018-12-06T17:46:22.262Z,-1.16
2018-12-06T17:48:52.728Z,-1.19
2018-12-06T17:51:23.290Z,-1.21
2018-12-06T17:53:54.263Z,-1.19
2018-12-06T17:56:24.982Z,-1.24
2018-12-06T17:58:55.465Z,-1.20
2018-12-06T18:01:26.216Z,-1.31
2018-12-06T18:03:56.800Z,-1.36
2018-12-06T18:06:27.303Z,-1.45
2018-12-06T18:08:57.954Z,-1.34
2018-12-06T18:11:28.528Z,-1.39
2018-12-06T18:13:59.053Z,-1.39
2018-12-06T18:16:29.526Z,-1.37
2018-12-06T18:19:00.143Z,-1.29
2018-12-06T18:21:31.034Z,-1.32
2018-12-06T18:24:01.542Z,-1.27
2018-12-06T18:26:33.510Z,-1.28
2018-12-06T18:29:04.581Z,-1.32
2018-12-06T18:31:35.144Z,-1.37
2018-12-06T18:34:05.557Z,-1.48
2018-12-06T18:36:36.273Z,-1.49
2018-12-06T18:39:08.980Z,-1.45
2018-12-06T18:41:39.840Z,-1.59
2018-12-06T18:44:10.228Z,-1.68
2018-12-06T18:46:40.736Z,-1.78
2018-12-06T18:49:11.256Z,-1.81
2018-12-06T18:51:41.758Z,-1.90
2018-12-06T18:54:12.294Z,-2.05
2018-12-06T18:56:42.801Z,-2.14
2018-12-06T18:59:13.343Z,-2.06
2018-12-06T19:01:43.999Z,-2.09
2018-12-06T19:04:14.524Z,-2.03
2018-12-06T19:06:45.826Z,-2.07
2018-12-06T19:09:16.398Z,-2.22
2018-12-06T19:11:46.900Z,-2.34
2018-12-06T19:14:21.741Z,-2.21
2018-12-06T19:16:49.901Z,-2.17
2018-12-06T19:19:20.434Z,-2.24
2018-12-06T19:21:51.029Z,-2.31
2018-12-06T19:24:21.596Z,-2.30
2018-12-06T19:26:52.045Z,-2.46
2018-12-06T19:29:22.609Z,-2.46
2018-12-06T19:31:54.095Z,-2.54
2018-12-06T19:34:24.542Z,-2.55
2018-12-06T19:36:55.153Z,-2.54
2018-12-06T19:39:25.688Z,-2.55
2018-12-06T19:41:56.433Z,-2.39
2018-12-06T19:44:26.915Z,-2.40
2018-12-06T19:46:57.440Z,-2.30
2018-12-06T19:49:27.965Z,-2.20
2018-12-06T19:51:58.442Z,-2.26
2018-12-06T19:54:28.911Z,-2.30
2018-12-06T19:56:59.453Z,-2.38
2018-12-06T19:59:29.886Z,-2.43
2018-12-06T20:02:00.645Z,-2.40
2018-12-06T20:04:31.233Z,-2.42
2018-12-06T20:07:01.737Z,-2.39
2018-12-06T20:09:32.173Z,-2.38
2018-12-06T20:12:02.686Z,-2.45
2018-12-06T20:14:33.151Z,-2.49
2018-12-06T20:17:03.649Z,-2.48
2018-12-06T20:19:35.453Z,-2.50
2018-12-06T20:22:06.141Z,-2.60
2018-12-06T20:24:36.676Z,-2.55
2018-12-06T20:27:07.114Z,-2.42
2018-12-06T20:29:37.623Z,-2.47
2018-12-06T20:32:14.477Z,-2.41
2018-12-06T20:34:40.594Z,-2.45
2018-12-06T20:37:11.102Z,-2.40
2018-12-06T20:39:41.869Z,-2.50
2018-12-06T20:42:12.425Z,-2.59
2018-12-06T20:44:43.013Z,-2.62
2018-12-06T20:47:17.466Z,-2.55
2018-12-06T20:49:48.067Z,-2.55
2018-12-06T20:52:18.545Z,-2.51
2018-12-06T20:54:49.055Z,-2.60
2018-12-06T20:57:19.622Z,-2.62
2018-12-06T20:59:50.109Z,-2.59
2018-12-06T21:02:20.746Z,-2.68
2018-12-06T21:04:51.197Z,-2.70
2018-12-06T21:07:21.753Z,-2.74
2018-12-06T21:09:52.308Z,-2.72
2018-12-06T21:12:22.812Z,-2.79
2018-12-06T21:14:53.261Z,-2.78
2018-12-06T21:17:23.701Z,-2.82
2018-12-06T21:19:54.202Z,-2.94
2018-12-06T21:22:24.907Z,-2.83
2018-12-06T21:24:55.402Z,-2.79
2018-12-06T21:27:25.843Z,-2.81
2018-12-06T21:29:56.390Z,-2.91
2018-12-06T21:32:26.864Z,-2.78
2018-12-06T21:34:57.317Z,-2.79
2018-12-06T21:37:27.834Z,-2.85
2018-12-06T21:40:00.385Z,-2.80
2018-12-06T21:42:31.008Z,-2.83
2018-12-06T21:45:01.471Z,-2.81
2018-12-06T21:47:31.988Z,-2.85
2018-12-06T21:50:02.398Z,-2.86
2018-12-06T21:52:32.912Z,-2.81
2018-12-06T21:55:03.345Z,-2.93
2018-12-06T21:57:33.944Z,-2.94
2018-12-06T22:00:04.785Z,-2.84
2018-12-06T22:02:35.480Z,-2.94
2018-12-06T22:05:06.267Z,-2.89
2018-12-06T22:07:36.795Z,-3.00
2018-12-06T22:10:08.601Z,-3.03
2018-12-06T22:12:39.130Z,-3.02
2018-12-06T22:15:09.611Z,-3.03
2018-12-06T22:17:40.119Z,-3.00
2018-12-06T22:20:10.545Z,-2.99
2018-12-06T22:22:41.254Z,-3.06
2018-12-06T22:25:11.744Z,-3.13
2018-12-06T22:27:42.245Z,-3.20
2018-12-06T22:30:12.708Z,-3.24
2018-12-06T22:32:43.179Z,-3.24
2018-12-06T22:35:13.625Z,-3.32
2018-12-06T22:37:44.184Z,-3.35
2018-12-06T22:40:14.766Z,-3.32
2018-12-06T22:42:45.433Z,-3.33
2018-12-06T22:46:24.586Z,-3.40
2018-12-06T22:48:55.134Z,-3.54
2018-12-06T22:51:25.668Z,-3.34
2018-12-06T22:53:56.113Z,-3.30
2018-12-06T22:56:26.537Z,-3.35
2018-12-06T22:58:57.093Z,-3.34
2018-12-06T23:01:32.492Z,-3.35
2018-12-06T23:04:03.094Z,-3.35
2018-12-06T23:06:33.572Z,-3.34
2018-12-06T23:09:06.161Z,-3.27
2018-12-06T23:11:39.646Z,-3.29
2018-12-06T23:14:10.185Z,-3.26
2018-12-06T23:16:40.772Z,-3.22
2018-12-06T23:19:11.281Z,-3.20
2018-12-06T23:21:41.723Z,-3.19
2018-12-06T23:24:13.753Z,-3.19
2018-12-06T23:26:45.557Z,-3.13
2018-12-06T23:29:16.055Z,-3.11
2018-12-06T23:31:46.562Z,-3.11
2018-12-06T23:34:17.072Z,-3.19
2018-12-06T23:36:47.526Z,-3.14
2018-12-06T23:39:18.045Z,-3.12
2018-12-06T23:41:48.531Z,-3.09
2018-12-06T23:44:19.249Z,-3.03
2018-12-06T23:46:49.756Z,-3.06
2018-12-06T23:49:20.198Z,-3.13
2018-12-06T23:51:50.878Z,-3.28
2018-12-06T23:54:21.374Z,-3.37
2018-12-06T23:56:51.804Z,-3.34
2018-12-06T23:59:22.333Z,-3.28
